Time;durP1;ratioP1;P1;durP2;ratioP2;P2;SDS_P1;SDS_P2;PMS_P1;PMS_P2;Temp;Humidity;BMP_temperature;BMP_pressure;BME280_temperature;BME280_humidity;BME280_pressure;Samples;Min_cycle;Max_cycle;Signal;HPM_P1;HPM_P2
2023/01/08 00:01:57;;;;;;;3.83;2.72;;;;;;;9.58;100.00;100151.97;4971666;28;20067;-69
2023/01/08 00:04:22;;;;;;;5.13;2.95;;;;;;;9.55;100.00;100145.16;4974201;28;20039;-69
2023/01/08 00:06:48;;;;;;;5.93;3.00;;;;;;;9.52;100.00;100148.31;4975239;28;20073;-68
2023/01/08 00:09:13;;;;;;;4.75;2.88;;;;;;;9.55;100.00;100157.84;4975347;28;20039;-69
2023/01/08 00:11:38;;;;;;;5.03;2.90;;;;;;;9.54;100.00;100158.88;4975487;28;20038;-69
2023/01/08 00:14:04;;;;;;;6.63;2.80;;;;;;;9.56;100.00;100167.59;4975164;28;20023;-68
2023/01/08 00:16:29;;;;;;;6.43;3.10;;;;;;;9.55;100.00;100164.06;4974368;28;20027;-68
2023/01/08 00:18:55;;;;;;;6.15;3.20;;;;;;;9.56;100.00;100159.50;4975380;28;20474;-68
2023/01/08 00:21:20;;;;;;;7.10;2.88;;;;;;;9.56;100.00;100163.00;4973920;28;20482;-69
2023/01/08 00:23:45;;;;;;;7.07;3.00;;;;;;;9.56;100.00;100151.38;4975238;28;20042;-68
2023/01/08 00:26:12;;;;;;;5.72;2.78;;;;;;;9.55;100.00;100147.84;4974416;28;20034;-69
2023/01/08 00:28:38;;;;;;;5.43;3.13;;;;;;;9.57;100.00;100143.06;4975187;28;20042;-68
2023/01/08 00:31:08;;;;;;;6.10;3.00;;;;;;;9.57;100.00;100150.31;4973851;28;20033;-69
2023/01/08 00:33:35;;;;;;;6.07;2.90;;;;;;;9.58;100.00;100135.75;4955734;28;20031;-69
2023/01/08 00:36:09;;;;;;;5.70;2.70;;;;;;;9.59;100.00;100132.00;4955446;28;20027;-69
2023/01/08 00:38:35;;;;;;;5.35;2.97;;;;;;;9.57;100.00;100131.41;4955666;28;20043;-69
2023/01/08 00:41:00;;;;;;;4.97;3.00;;;;;;;9.58;100.00;100124.97;4955339;28;20127;-68
2023/01/08 00:43:25;;;;;;;7.03;3.05;;;;;;;9.59;100.00;100118.50;4962969;28;20027;-69
2023/01/08 00:45:52;;;;;;;6.43;2.95;;;;;;;9.59;100.00;100121.22;4973423;28;20647;-69
2023/01/08 00:48:18;;;;;;;6.82;3.13;;;;;;;9.59;100.00;100121.22;4974613;28;20041;-69
2023/01/08 00:50:43;;;;;;;6.60;2.78;;;;;;;9.61;100.00;100108.28;4974637;28;20030;-68
2023/01/08 00:53:08;;;;;;;5.70;3.00;;;;;;;9.62;100.00;100103.69;4974146;28;20054;-68
2023/01/08 00:55:34;;;;;;;6.55;3.10;;;;;;;9.61;100.00;100102.06;4974882;28;20379;-68
2023/01/08 00:57:59;;;;;;;7.13;3.30;;;;;;;9.61;100.00;100107.47;4973115;28;20030;-68
2023/01/08 01:00:24;;;;;;;5.32;2.97;;;;;;;9.59;100.00;100105.00;4973319;28;20077;-68
2023/01/08 01:02:50;;;;;;;6.78;3.00;;;;;;;9.61;100.00;100105.56;4970650;28;20117;-68
2023/01/08 01:05:16;;;;;;;7.90;3.13;;;;;;;9.60;100.00;100093.13;4974670;28;20034;-68
2023/01/08 01:07:43;;;;;;;8.13;3.38;;;;;;;9.58;100.00;100096.06;4974385;28;20034;-69
2023/01/08 01:10:10;;;;;;;5.65;3.00;;;;;;;9.59;100.00;100099.59;4973794;28;20034;-68
2023/01/08 01:12:37;;;;;;;7.78;3.47;;;;;;;9.60;100.00;100087.72;4973748;28;20053;-68
2023/01/08 01:15:03;;;;;;;7.10;3.28;;;;;;;9.59;100.00;100083.38;4974049;28;20118;-68
2023/01/08 01:17:28;;;;;;;4.15;2.90;;;;;;;9.59;100.00;100086.09;4973326;28;20030;-68
2023/01/08 01:19:53;;;;;;;10.75;3.60;;;;;;;9.57;100.00;100080.94;4973981;28;20035;-68
2023/01/08 01:22:19;;;;;;;7.30;3.25;;;;;;;9.55;100.00;100085.72;4972945;28;20026;-68
2023/01/08 01:24:44;;;;;;;7.07;3.10;;;;;;;9.56;100.00;100079.28;4973058;28;20089;-68
2023/01/08 01:27:09;;;;;;;7.05;2.90;;;;;;;9.56;100.00;100078.47;4972876;28;20146;-68
2023/01/08 01:29:34;;;;;;;8.15;3.28;;;;;;;9.56;100.00;100081.16;4972813;28;20027;-68
2023/01/08 01:32:00;;;;;;;5.47;3.15;;;;;;;9.56;100.00;100081.16;4972762;28;20466;-68
2023/01/08 01:34:25;;;;;;;7.55;3.45;;;;;;;9.57;100.00;100075.53;4973406;28;20072;-68
2023/01/08 01:36:50;;;;;;;4.45;3.10;;;;;;;9.59;100.00;100078.00;4973922;28;20023;-68
2023/01/08 01:39:16;;;;;;;7.85;3.45;;;;;;;9.62;100.00;100077.50;4972456;28;20031;-68
2023/01/08 01:41:43;;;;;;;8.48;3.35;;;;;;;9.60;100.00;100090.41;4973922;28;20394;-68
2023/01/08 01:44:34;;;;;;;4.85;2.90;;;;;;;9.62;100.00;100093.72;4971908;28;20458;-68
2023/01/08 01:47:21;;;;;;;5.47;2.88;;;;;;;9.62;100.00;100099.13;4972528;28;20390;-68
2023/01/08 01:50:13;;;;;;;6.65;2.92;;;;;;;9.58;100.00;100103.34;4973128;28;20034;-68
2023/01/08 01:52:44;;;;;;;7.93;2.80;;;;;;;9.55;100.00;100103.81;4973527;28;20033;-68
2023/01/08 01:55:11;;;;;;;5.60;3.10;;;;;;;9.49;100.00;100110.97;4973483;28;20023;-68
2023/01/08 01:57:38;;;;;;;5.95;3.00;;;;;;;9.44;100.00;100112.78;4973397;28;20281;-68
2023/01/08 02:00:07;;;;;;;5.47;2.63;;;;;;;9.37;100.00;100116.38;4973198;28;20466;-69
2023/01/08 02:02:32;;;;;;;4.68;2.65;;;;;;;9.30;100.00;100109.47;4970339;28;20109;-69
2023/01/08 02:05:00;;;;;;;5.25;2.38;;;;;;;9.26;100.00;100117.22;4969935;28;20105;-69
2023/01/08 02:07:34;;;;;;;5.38;2.22;;;;;;;9.20;100.00;100120.84;4973531;28;20034;-69
2023/01/08 02:10:09;;;;;;;7.80;2.40;;;;;;;9.07;100.00;100094.09;4973396;28;20033;-69
2023/01/08 02:12:45;;;;;;;5.75;1.98;;;;;;;8.91;100.00;100100.97;4973308;28;20034;-68
2023/01/08 02:15:25;;;;;;;6.30;1.83;;;;;;;8.86;100.00;100091.72;4973343;28;20035;-69
2023/01/08 02:18:02;;;;;;;5.03;1.50;;;;;;;8.76;100.00;100090.66;4973538;28;20459;-68
2023/01/08 02:20:31;;;;;;;5.80;1.48;;;;;;;8.68;100.00;100075.59;4972567;28;20077;-69
2023/01/08 02:23:14;;;;;;;3.30;1.52;;;;;;;8.59;100.00;100067.03;4973544;28;20041;-68
2023/01/08 02:26:17;;;;;;;6.53;1.40;;;;;;;8.57;100.00;100069.13;4973466;28;20041;-68
2023/01/08 02:28:48;;;;;;;5.20;1.50;;;;;;;8.55;100.00;100073.13;4976031;28;20147;-69
2023/01/08 02:31:15;;;;;;;6.90;1.90;;;;;;;8.54;100.00;100075.00;4976954;28;20602;-69
2023/01/08 02:33:40;;;;;;;5.65;1.45;;;;;;;8.49;100.00;100080.25;4977277;28;20034;-68
2023/01/08 02:36:44;;;;;;;4.95;1.70;;;;;;;8.49;100.00;100074.88;4976997;28;20023;-69
2023/01/08 02:39:43;;;;;;;5.28;1.20;;;;;;;8.47;100.00;100072.41;4976017;28;20429;-69
2023/01/08 02:42:27;;;;;;;5.13;1.27;;;;;;;8.44;100.00;100078.25;4976924;28;20039;-69
2023/01/08 02:44:55;;;;;;;5.22;1.30;;;;;;;8.40;100.00;100071.63;4976063;28;20493;-69
2023/01/08 02:47:31;;;;;;;4.63;1.52;;;;;;;8.36;100.00;100072.31;4976558;28;20130;-69
2023/01/08 02:50:05;;;;;;;5.95;1.48;;;;;;;8.34;100.00;100076.06;4975458;28;20517;-69
2023/01/08 02:52:33;;;;;;;4.75;1.30;;;;;;;8.29;100.00;100067.84;4975884;28;20027;-69
2023/01/08 02:55:01;;;;;;;4.40;1.40;;;;;;;8.26;100.00;100068.31;4975304;28;20129;-69
2023/01/08 02:57:29;;;;;;;5.32;1.38;;;;;;;8.24;100.00;100064.19;4976772;28;20031;-69
2023/01/08 02:59:56;;;;;;;5.70;1.40;;;;;;;8.15;100.00;100050.22;4975488;28;20027;-69
2023/01/08 03:02:22;;;;;;;4.40;1.30;;;;;;;8.16;100.00;100049.16;4973139;28;20117;-68
2023/01/08 03:04:58;;;;;;;4.38;1.50;;;;;;;8.13;100.00;100045.06;4975105;28;20463;-69
2023/01/08 03:07:24;;;;;;;5.45;1.30;;;;;;;8.12;100.00;100047.97;4976768;28;20082;-69
2023/01/08 03:09:49;;;;;;;6.03;1.33;;;;;;;8.13;100.00;100045.06;4975625;28;20035;-68
2023/01/08 03:12:38;;;;;;;6.10;1.35;;;;;;;8.11;100.00;100054.44;4976279;28;20062;-69
2023/01/08 03:15:07;;;;;;;6.88;1.45;;;;;;;8.08;100.00;100055.72;4976352;28;20422;-69
2023/01/08 03:17:40;;;;;;;6.60;1.48;;;;;;;8.12;100.00;100050.66;4976699;28;20038;-69
2023/01/08 03:20:10;;;;;;;6.18;1.65;;;;;;;8.11;100.00;100046.34;4976219;28;20030;-69
2023/01/08 03:22:39;;;;;;;5.93;1.33;;;;;;;8.10;100.00;100048.19;4976354;28;20031;-69
2023/01/08 03:25:07;;;;;;;5.90;1.33;;;;;;;8.09;100.00;100054.66;4974821;28;20062;-69
2023/01/08 03:27:39;;;;;;;7.18;1.60;;;;;;;8.11;100.00;100046.34;4975327;28;20038;-69
2023/01/08 03:30:08;;;;;;;7.05;1.83;;;;;;;8.08;100.00;100046.81;4975730;28;20043;-68
2023/01/08 03:32:35;;;;;;;8.77;1.77;;;;;;;8.09;100.00;100051.13;4972923;28;20046;-68
2023/01/08 03:35:02;;;;;;;5.95;1.70;;;;;;;8.11;100.00;100039.09;4974383;28;20058;-69
2023/01/08 03:37:35;;;;;;;5.03;1.45;;;;;;;8.13;100.00;100036.16;4976048;28;20430;-68
2023/01/08 03:40:15;;;;;;;5.47;1.60;;;;;;;8.16;100.00;100038.38;4975839;28;20065;-68
2023/01/08 03:42:40;;;;;;;5.45;1.30;;;;;;;8.13;100.00;100034.28;4975316;28;20113;-68
2023/01/08 03:45:07;;;;;;;4.53;1.17;;;;;;;8.12;100.00;100037.19;4975490;28;20522;-68
2023/01/08 03:47:34;;;;;;;5.45;1.60;;;;;;;8.11;100.00;100036.38;4975931;28;20133;-68
2023/01/08 03:50:02;;;;;;;4.32;1.38;;;;;;;8.10;100.00;100039.31;4974582;28;20062;-68
2023/01/08 03:52:30;;;;;;;4.55;1.50;;;;;;;8.09;100.00;100027.72;4975124;28;20039;-69
2023/01/08 03:54:55;;;;;;;7.28;1.50;;;;;;;8.13;100.00;100028.06;4975777;28;20030;-69
2023/01/08 03:57:21;;;;;;;5.88;1.40;;;;;;;8.14;100.00;100029.72;4975270;28;20037;-68
2023/01/08 03:59:46;;;;;;;5.45;1.80;;;;;;;8.15;100.00;100025.97;4974487;28;20046;-69
2023/01/08 04:02:12;;;;;;;5.65;1.50;;;;;;;8.18;100.00;100027.38;4971898;28;20034;-68
2023/01/08 04:04:37;;;;;;;7.15;1.73;;;;;;;8.20;100.00;100023.41;4975348;28;20123;-68
2023/01/08 04:07:03;;;;;;;5.05;1.40;;;;;;;8.16;100.00;100031.13;4975284;28;20031;-69
2023/01/08 04:09:28;;;;;;;7.10;1.80;;;;;;;8.12;100.00;100021.03;4975247;28;20039;-69
2023/01/08 04:11:54;;;;;;;7.35;1.63;;;;;;;8.11;100.00;100019.41;4974374;28;20039;-69
2023/01/08 04:14:19;;;;;;;5.82;1.80;;;;;;;8.13;100.00;100003.81;4974619;28;20065;-69
2023/01/08 04:16:44;;;;;;;5.50;1.67;;;;;;;8.12;100.00;99994.09;4975408;28;20454;-68
2023/01/08 04:19:11;;;;;;;5.63;1.52;;;;;;;8.12;100.00;100003.00;4975075;28;20070;-69
2023/01/08 04:21:37;;;;;;;3.75;1.35;;;;;;;8.09;100.00;100013.41;4974733;28;20097;-68
2023/01/08 04:24:03;;;;;;;6.50;1.63;;;;;;;8.09;100.00;100010.72;4974966;28;20034;-68
2023/01/08 04:26:29;;;;;;;3.60;1.77;;;;;;;8.11;100.00;100019.41;4974895;28;20038;-69
2023/01/08 04:28:54;;;;;;;6.05;2.00;;;;;;;8.09;100.00;100018.78;4974839;28;20066;-68
2023/01/08 04:31:20;;;;;;;7.93;2.28;;;;;;;8.05;100.00;99999.59;4974773;28;20046;-69
2023/01/08 04:33:45;;;;;;;4.68;2.08;;;;;;;8.05;100.00;99999.59;4973083;28;20035;-68
2023/01/08 04:36:10;;;;;;;5.45;2.08;;;;;;;8.08;100.00;99998.31;4974860;28;20026;-68
2023/01/08 04:38:36;;;;;;;5.05;1.65;;;;;;;8.10;100.00;99996.19;4975134;28;20033;-69
2023/01/08 04:41:01;;;;;;;4.50;1.60;;;;;;;8.12;100.00;100004.88;4974962;28;20062;-68
2023/01/08 04:43:28;;;;;;;6.40;2.10;;;;;;;8.10;100.00;99997.00;4974631;28;20026;-69
2023/01/08 04:46:02;;;;;;;6.22;2.10;;;;;;;8.11;100.00;99995.16;4974698;28;20046;-69
2023/01/08 04:48:29;;;;;;;4.57;1.70;;;;;;;8.09;100.00;99990.00;4972165;28;20043;-68
2023/01/08 04:50:57;;;;;;;7.20;2.15;;;;;;;8.07;100.00;99999.34;4973329;28;20023;-68
2023/01/08 04:53:22;;;;;;;4.93;1.90;;;;;;;8.10;100.00;99996.19;4974184;28;20085;-68
2023/01/08 04:55:47;;;;;;;7.00;2.00;;;;;;;8.06;100.00;99995.00;4972612;28;20035;-68
2023/01/08 04:58:13;;;;;;;6.85;2.10;;;;;;;8.06;100.00;100003.94;4974118;28;20066;-68
2023/01/08 05:00:38;;;;;;;5.43;2.00;;;;;;;8.08;100.00;100003.69;4970916;28;20019;-69
2023/01/08 05:03:04;;;;;;;5.53;1.80;;;;;;;8.10;100.00;99998.88;4974356;28;20451;-69
2023/01/08 05:05:29;;;;;;;5.03;2.00;;;;;;;8.07;100.00;100002.03;4972607;28;20038;-69
2023/01/08 05:07:54;;;;;;;4.93;1.92;;;;;;;8.06;100.00;100005.78;4974410;28;20034;-68
2023/01/08 05:10:21;;;;;;;3.67;1.70;;;;;;;8.02;100.00;100008.13;4973763;28;20065;-69
2023/01/08 05:12:46;;;;;;;5.22;1.65;;;;;;;8.05;100.00;99993.38;4974076;28;20045;-68
2023/01/08 05:15:11;;;;;;;3.13;1.40;;;;;;;8.05;100.00;100006.84;4974265;28;20030;-68
2023/01/08 05:17:37;;;;;;;5.63;1.40;;;;;;;8.04;100.00;100008.69;4972557;28;20383;-69
2023/01/08 05:20:02;;;;;;;5.65;1.40;;;;;;;8.03;100.00;100012.47;4971059;28;20042;-68
2023/01/08 05:22:28;;;;;;;3.08;1.40;;;;;;;7.95;100.00;100005.50;4973689;28;20481;-68
2023/01/08 05:24:53;;;;;;;4.35;1.30;;;;;;;7.96;100.00;99999.06;4974175;28;20031;-69
2023/01/08 05:27:18;;;;;;;3.60;1.35;;;;;;;7.97;100.00;99995.34;4973925;28;20038;-68
2023/01/08 05:29:43;;;;;;;3.55;1.08;;;;;;;7.97;100.00;99987.25;4973769;28;20035;-68
2023/01/08 05:32:16;;;;;;;4.35;1.40;;;;;;;7.98;100.00;99988.88;4972432;28;20482;-68
2023/01/08 05:34:42;;;;;;;3.05;1.60;;;;;;;7.94;100.00;99976.09;4972748;28;20082;-68
2023/01/08 05:37:07;;;;;;;5.90;1.42;;;;;;;7.93;100.00;99964.50;4973727;28;20426;-69
2023/01/08 05:39:33;;;;;;;7.03;1.52;;;;;;;7.92;100.00;99973.63;4972971;28;20054;-68
2023/01/08 05:41:58;;;;;;;5.15;1.40;;;;;;;7.91;100.00;99985.47;4973917;28;20035;-68
2023/01/08 05:44:23;;;;;;;3.58;1.35;;;;;;;7.95;100.00;99983.13;4973453;28;20082;-69
2023/01/08 05:46:48;;;;;;;4.72;1.40;;;;;;;7.88;100.00;99985.94;4973461;28;20138;-68
2023/01/08 05:49:14;;;;;;;4.63;1.67;;;;;;;7.87;100.00;99980.78;4972661;28;20412;-68
2023/01/08 05:51:39;;;;;;;3.13;1.35;;;;;;;7.85;100.00;99972.94;4973429;28;20085;-68
2023/01/08 05:54:04;;;;;;;6.10;1.48;;;;;;;7.84;100.00;99973.97;4973771;28;20026;-68
2023/01/08 05:56:30;;;;;;;6.95;1.40;;;;;;;7.76;100.00;99979.66;4973456;28;20587;-68
2023/01/08 05:58:55;;;;;;;6.40;1.45;;;;;;;7.78;100.00;99988.34;4972622;28;20061;-69
2023/01/08 06:01:20;;;;;;;7.25;1.50;;;;;;;7.73;100.00;99991.72;4970354;28;20076;-68
2023/01/08 06:03:46;;;;;;;5.28;1.52;;;;;;;7.74;100.00;99989.84;4973767;28;20105;-68
2023/01/08 06:06:12;;;;;;;7.15;1.80;;;;;;;7.69;100.00;99995.09;4973376;28;20026;-68
2023/01/08 06:08:38;;;;;;;7.22;1.55;;;;;;;7.65;100.00;99999.28;4972698;28;20070;-68
2023/01/08 06:11:06;;;;;;;4.95;1.48;;;;;;;7.62;100.00;99998.72;4973458;28;20042;-68
2023/01/08 06:13:33;;;;;;;5.43;1.63;;;;;;;7.58;100.00;100008.28;4972086;28;20027;-68
2023/01/08 06:16:00;;;;;;;5.30;1.60;;;;;;;7.60;100.00;100010.75;4973563;28;20485;-68
2023/01/08 06:18:27;;;;;;;6.30;1.65;;;;;;;7.50;100.00;100005.06;4973362;28;20042;-68
2023/01/08 06:20:52;;;;;;;5.85;1.77;;;;;;;7.47;100.00;100008.19;4973506;28;20110;-69
2023/01/08 06:23:18;;;;;;;8.77;1.75;;;;;;;7.45;100.00;100008.44;4971671;28;20171;-68
2023/01/08 06:25:43;;;;;;;9.23;1.65;;;;;;;7.42;100.00;100008.88;4973335;28;20031;-68
2023/01/08 06:28:08;;;;;;;4.50;1.70;;;;;;;7.40;100.00;100005.59;4973471;28;20026;-68
2023/01/08 06:30:34;;;;;;;6.82;1.77;;;;;;;7.37;100.00;100014.13;4973150;28;20035;-68
2023/01/08 06:33:00;;;;;;;8.32;2.00;;;;;;;7.34;100.00;100017.28;4973361;28;20089;-68
2023/01/08 06:35:26;;;;;;;6.88;1.98;;;;;;;7.31;100.00;100017.69;4973170;28;20034;-68
2023/01/08 06:37:54;;;;;;;5.80;1.58;;;;;;;7.24;100.00;100021.28;4972514;28;20090;-68
2023/01/08 06:40:19;;;;;;;3.72;1.50;;;;;;;7.27;100.00;100026.22;4971647;28;20043;-68
2023/01/08 06:42:45;;;;;;;5.03;1.50;;;;;;;7.26;100.00;100027.28;4973289;28;20031;-68
2023/01/08 06:45:11;;;;;;;4.43;1.77;;;;;;;7.22;100.00;100031.44;4972810;28;20437;-68
2023/01/08 06:47:36;;;;;;;8.20;2.13;;;;;;;7.19;100.00;100031.91;4972474;28;20047;-68
2023/01/08 06:50:04;;;;;;;4.95;1.67;;;;;;;7.20;100.00;100030.84;4973091;28;20126;-68
2023/01/08 06:52:30;;;;;;;9.18;2.22;;;;;;;7.17;100.00;100030.47;4972873;28;20031;-68
2023/01/08 06:54:55;;;;;;;10.40;2.78;;;;;;;7.19;100.00;100033.78;4971352;28;20031;-68
2023/01/08 06:57:20;;;;;;;6.20;1.83;;;;;;;7.20;100.00;100040.78;4972906;28;20455;-68
2023/01/08 06:59:46;;;;;;;9.68;2.20;;;;;;;7.20;100.00;100036.25;4973109;28;20058;-68
2023/01/08 07:02:15;;;;;;;7.07;1.83;;;;;;;7.19;100.00;100037.28;4970518;28;20058;-69
2023/01/08 07:04:40;;;;;;;8.00;2.22;;;;;;;7.17;100.00;100031.31;4971934;28;20061;-68
2023/01/08 07:07:06;;;;;;;9.57;2.35;;;;;;;7.15;100.00;100033.38;4971726;28;20476;-68
2023/01/08 07:09:35;;;;;;;9.32;2.33;;;;;;;7.14;100.00;100025.53;4971370;28;20054;-69
2023/01/08 07:12:00;;;;;;;8.48;2.50;;;;;;;7.10;100.00;100022.47;4975563;28;20471;-68
2023/01/08 07:14:25;;;;;;;11.65;2.35;;;;;;;7.14;100.00;100026.38;4976631;28;20038;-68
2023/01/08 07:16:51;;;;;;;11.57;2.63;;;;;;;7.10;100.00;100025.16;4976489;28;20110;-68
2023/01/08 07:19:16;;;;;;;13.20;2.47;;;;;;;7.09;100.00;100023.50;4976265;28;20410;-68
2023/01/08 07:21:41;;;;;;;10.10;2.38;;;;;;;7.10;100.00;100017.09;4974821;28;20070;-68
2023/01/08 07:24:07;;;;;;;11.10;2.67;;;;;;;7.07;100.00;100020.22;4976255;28;20034;-68
2023/01/08 07:26:33;;;;;;;13.18;2.78;;;;;;;7.08;100.00;100021.84;4974789;28;20502;-68
2023/01/08 07:28:58;;;;;;;9.63;2.60;;;;;;;7.06;100.00;100023.94;4976261;28;20030;-68
2023/01/08 07:31:23;;;;;;;8.55;2.30;;;;;;;7.05;100.00;100022.28;4974435;28;20391;-68
2023/01/08 07:33:49;;;;;;;10.73;2.58;;;;;;;7.02;100.00;100033.50;4974883;28;20522;-68
2023/01/08 07:36:15;;;;;;;8.10;2.20;;;;;;;7.00;100.00;100019.47;4973773;28;20434;-68
2023/01/08 07:38:41;;;;;;;16.20;2.78;;;;;;;6.95;100.00;100024.69;4976041;28;20118;-68
2023/01/08 07:41:06;;;;;;;9.93;2.25;;;;;;;6.96;100.00;100029.00;4976076;28;20035;-68
2023/01/08 07:43:32;;;;;;;11.57;2.42;;;;;;;6.94;100.00;100036.50;4975945;28;20085;-68
2023/01/08 07:45:57;;;;;;;11.13;2.88;;;;;;;6.89;100.00;100021.84;4975882;28;20138;-68
2023/01/08 07:48:22;;;;;;;10.73;2.50;;;;;;;6.88;100.00;100022.06;4975738;28;20043;-68
2023/01/08 07:50:48;;;;;;;13.02;2.33;;;;;;;6.84;100.00;100019.00;4974948;28;20045;-68
2023/01/08 07:53:16;;;;;;;8.95;2.50;;;;;;;6.81;100.00;100024.81;4974384;28;20037;-68
2023/01/08 07:55:41;;;;;;;9.75;2.30;;;;;;;6.80;100.00;100019.66;4975616;28;20077;-68
2023/01/08 07:58:13;;;;;;;6.70;2.08;;;;;;;6.78;100.00;100019.03;4975812;28;20101;-68
2023/01/08 08:00:39;;;;;;;7.78;2.03;;;;;;;6.78;100.00;100016.34;4973218;28;20046;-68
2023/01/08 08:03:06;;;;;;;7.75;2.00;;;;;;;6.76;100.00;100015.75;4976037;28;20070;-68
2023/01/08 08:05:32;;;;;;;8.63;2.20;;;;;;;6.77;100.00;100020.91;4974103;28;20027;-68
2023/01/08 08:07:57;;;;;;;8.25;2.30;;;;;;;6.78;100.00;100008.28;4974684;28;20526;-68
2023/01/08 08:10:22;;;;;;;12.10;2.17;;;;;;;6.77;100.00;100004.78;4968274;28;20061;-68
2023/01/08 08:12:48;;;;;;;11.80;2.30;;;;;;;6.77;100.00;99994.03;4974771;28;20126;-70
2023/01/08 08:15:13;;;;;;;12.00;2.15;;;;;;;6.81;100.00;99991.69;4975466;28;20056;-69
2023/01/08 08:17:38;;;;;;;10.50;2.50;;;;;;;6.84;100.00;99993.94;4971127;28;20039;-69
2023/01/08 08:20:04;;;;;;;10.02;2.40;;;;;;;6.90;100.00;99975.06;4974942;28;20031;-69
2023/01/08 08:22:29;;;;;;;5.90;2.05;;;;;;;6.90;100.00;99972.38;4973476;28;20039;-69
2023/01/08 08:24:55;;;;;;;9.57;2.22;;;;;;;6.97;100.00;99977.69;4971698;28;20039;-69
2023/01/08 08:27:21;;;;;;;12.25;2.22;;;;;;;6.99;100.00;99972.91;4957950;28;20030;-69
2023/01/08 08:29:46;;;;;;;9.25;2.22;;;;;;;7.02;100.00;99974.31;4973869;28;20042;-70
2023/01/08 08:32:12;;;;;;;9.40;2.20;;;;;;;7.02;100.00;99983.22;4974482;28;20026;-69
2023/01/08 08:34:37;;;;;;;8.20;2.10;;;;;;;7.11;100.00;99983.78;4973840;28;20062;-69
2023/01/08 08:37:02;;;;;;;9.98;2.20;;;;;;;7.06;100.00;99983.59;4975036;28;20062;-70
2023/01/08 08:39:27;;;;;;;12.30;2.40;;;;;;;7.08;100.00;99986.88;4974768;28;20495;-69
2023/01/08 08:41:53;;;;;;;10.13;2.00;;;;;;;7.11;100.00;99986.47;4974115;28;20065;-69
2023/01/08 08:44:18;;;;;;;9.30;2.15;;;;;;;7.14;100.00;99983.31;4973262;28;20031;-71
2023/01/08 08:46:43;;;;;;;8.15;2.03;;;;;;;7.13;100.00;99980.84;4974144;28;20043;-71
2023/01/08 08:49:09;;;;;;;12.52;2.50;;;;;;;7.10;100.00;99976.75;4973979;28;20121;-72
2023/01/08 08:51:34;;;;;;;7.75;2.15;;;;;;;7.08;100.00;99984.19;4973182;28;20470;-71
2023/01/08 08:53:59;;;;;;;10.02;2.47;;;;;;;7.07;100.00;99979.88;4972361;28;20034;-72
2023/01/08 08:56:25;;;;;;;9.50;2.30;;;;;;;7.03;100.00;99970.59;4972098;28;20038;-70
2023/01/08 08:58:51;;;;;;;9.75;2.05;;;;;;;7.04;100.00;99973.06;4974646;28;20113;-72
2023/01/08 09:01:16;;;;;;;6.88;2.03;;;;;;;7.02;100.00;99967.09;4972279;28;20031;-73
2023/01/08 09:03:41;;;;;;;9.75;2.25;;;;;;;7.01;100.00;99968.13;4974303;28;20030;-70
2023/01/08 09:06:13;;;;;;;13.43;3.30;;;;;;;7.00;100.00;99966.47;4974507;28;20500;-70
2023/01/08 09:08:38;;;;;;;11.90;2.20;;;;;;;6.99;100.00;99964.00;4973131;28;20030;-72
2023/01/08 09:11:03;;;;;;;7.70;2.30;;;;;;;6.99;100.00;99958.63;4970143;28;20041;-70
2023/01/08 09:13:29;;;;;;;6.30;2.25;;;;;;;6.95;100.00;99957.47;4973145;28;20087;-69
2023/01/08 09:15:57;;;;;;;8.48;2.38;;;;;;;6.92;100.00;99956.84;4972998;28;20023;-69
2023/01/08 09:18:22;;;;;;;10.00;2.08;;;;;;;6.95;100.00;99957.47;4972754;28;20472;-72
2023/01/08 09:20:48;;;;;;;10.98;2.60;;;;;;;6.91;100.00;99963.28;4974378;28;20115;-75
2023/01/08 09:23:13;;;;;;;11.73;2.60;;;;;;;6.88;100.00;99955.66;4972161;28;20073;-71
2023/01/08 09:25:38;;;;;;;9.43;2.15;;;;;;;6.90;100.00;99953.56;4973461;28;20034;-74
2023/01/08 09:28:06;;;;;;;10.52;2.60;;;;;;;6.89;100.00;99949.22;4987009;28;20113;-73
2023/01/08 09:30:33;;;;;;;9.90;2.55;;;;;;;6.88;100.00;99955.66;4969187;28;20027;-75
2023/01/08 09:33:37;;;;;;;9.93;2.38;;;;;;;6.98;100.00;99943.56;4972440;28;20030;-78
2023/01/08 09:36:02;;;;;;;11.75;2.38;;;;;;;6.96;100.00;99937.56;4966201;28;20496;-73
2023/01/08 09:38:28;;;;;;;11.93;2.38;;;;;;;6.94;100.00;99934.28;4954295;28;20078;-74
2023/01/08 09:40:57;;;;;;;10.68;2.45;;;;;;;6.95;100.00;99936.75;4954513;28;20027;-71
2023/01/08 09:43:27;;;;;;;11.90;2.60;;;;;;;6.98;100.00;99930.13;4952963;29;20117;-72
2023/01/08 09:45:57;;;;;;;8.32;2.10;;;;;;;6.99;100.00;99937.13;4969793;28;20129;-75
2023/01/08 09:48:29;;;;;;;9.88;2.50;;;;;;;7.04;100.00;99934.59;4973413;28;20505;-72
2023/01/08 09:50:56;;;;;;;11.57;2.47;;;;;;;7.01;100.00;99933.16;4972224;28;20073;-72
2023/01/08 09:53:21;;;;;;;10.35;2.63;;;;;;;7.04;100.00;99930.03;4971828;28;20046;-72
2023/01/08 09:55:57;;;;;;;7.32;2.22;;;;;;;7.07;100.00;99918.81;4973555;28;20022;-70
2023/01/08 09:58:28;;;;;;;11.10;2.35;;;;;;;7.08;100.00;99930.38;4972209;28;20038;-71
2023/01/08 10:00:54;;;;;;;11.88;2.53;;;;;;;7.10;100.00;99923.75;4971527;28;20039;-74
2023/01/08 10:03:27;;;;;;;9.18;2.90;;;;;;;7.13;100.00;99925.16;4972705;28;20061;-71
2023/01/08 10:05:53;;;;;;;18.70;3.25;;;;;;;7.15;100.00;99922.25;4954334;28;20035;-71
2023/01/08 10:08:18;;;;;;;7.60;2.10;;;;;;;7.18;100.00;99917.22;4954307;28;20043;-72
2023/01/08 10:10:44;;;;;;;8.52;2.28;;;;;;;7.22;100.00;99914.94;4953744;28;20122;-72
2023/01/08 10:13:11;;;;;;;8.93;2.53;;;;;;;7.23;100.00;99916.56;4953045;28;20034;-71
2023/01/08 10:15:39;;;;;;;8.70;2.42;;;;;;;7.23;100.00;99912.00;4956224;28;20045;-72
2023/01/08 10:18:09;;;;;;;9.35;2.35;;;;;;;7.25;100.00;99907.22;4952585;28;20028;-70
2023/01/08 10:20:35;;;;;;;9.43;2.30;;;;;;;7.35;100.00;99908.53;4972942;28;20394;-71
2023/01/08 10:23:11;;;;;;;11.70;2.22;;;;;;;7.42;100.00;99901.22;4973474;28;20038;-72
2023/01/08 10:26:00;;;;;;;9.48;2.42;;;;;;;7.45;100.00;99906.13;4971977;28;20589;-70
2023/01/08 10:28:32;;;;;;;7.22;2.08;;;;;;;7.45;100.00;99898.06;4973340;28;20034;-72
2023/01/08 10:31:03;;;;;;;5.05;1.67;;;;;;;7.48;100.00;99903.00;4973417;28;20509;-71
2023/01/08 10:33:37;;;;;;;7.10;2.13;;;;;;;7.51;100.00;99905.22;4972169;28;20034;-71
2023/01/08 10:36:07;;;;;;;8.65;2.10;;;;;;;7.55;100.00;99898.34;4970722;28;20031;-70
2023/01/08 10:38:53;;;;;;;5.88;1.48;;;;;;;7.61;100.00;99894.72;4972632;28;20047;-71
2023/01/08 10:41:20;;;;;;;7.40;1.95;;;;;;;7.61;100.00;99883.97;4972114;28;20447;-70
2023/01/08 10:44:01;;;;;;;7.38;1.90;;;;;;;7.73;100.00;99883.16;4972893;28;20092;-71
2023/01/08 10:46:35;;;;;;;7.20;1.60;;;;;;;7.78;100.00;99880.63;4982254;28;20508;-71
2023/01/08 10:49:04;;;;;;;6.65;1.70;;;;;;;7.81;100.00;99874.78;4975427;28;20031;-72
2023/01/08 10:51:31;;;;;;;4.57;1.40;;;;;;;7.91;100.00;99875.03;4974782;28;20034;-76
2023/01/08 10:54:22;;;;;;;4.50;1.40;;;;;;;7.99;100.00;99868.47;4974444;28;20039;-73
2023/01/08 10:56:48;;;;;;;6.90;1.40;;;;;;;8.05;100.00;99866.75;4975297;28;20034;-74
2023/01/08 10:59:21;;;;;;;4.18;1.27;;;;;;;8.10;100.00;99867.66;4972393;28;20365;-71
2023/01/08 11:01:49;;;;;;;3.88;1.00;;;;;;;8.19;100.00;99860.06;4953545;28;20030;-77
2023/01/08 11:04:35;;;;;;;3.08;0.93;;;;;;;8.27;100.00;99853.50;4967710;28;20037;-74
2023/01/08 11:07:02;;;;;;;4.13;1.80;;;;;;;8.33;100.00;99861.50;4969846;28;20042;-73
2023/01/08 11:09:33;;;;;;;3.30;1.00;;;;;;;8.40;100.00;99850.56;4969094;28;20498;-73
2023/01/08 11:11:59;;;;;;;3.08;1.20;;;;;;;8.46;100.00;99855.06;4966542;28;20076;-69
2023/01/08 11:14:33;;;;;;;2.05;1.10;;;;;;;8.48;100.00;99849.41;4965637;28;20073;-69
2023/01/08 11:17:01;;;;;;;1.48;0.65;;;;;;;8.51;100.00;99844.41;4967392;28;20085;-70
2023/01/08 11:19:33;;;;;;;2.13;0.80;;;;;;;8.54;100.00;99843.09;4968376;28;20031;-71
2023/01/08 11:22:00;;;;;;;1.95;0.70;;;;;;;8.57;100.00;99831.81;4968643;28;20069;-73
2023/01/08 11:24:25;;;;;;;1.77;0.80;;;;;;;8.59;100.00;99831.59;4966595;28;20062;-75
2023/01/08 11:26:56;;;;;;;1.45;0.80;;;;;;;8.61;100.00;99832.19;4966427;28;20070;-71
2023/01/08 11:29:27;;;;;;;0.82;0.55;;;;;;;8.66;100.00;99825.00;4969514;28;20454;-71
2023/01/08 11:31:56;;;;;;;;;;;;;;;8.74;100.00;99817.59;4974693;28;20042;-72